sensor_id;sensor_type;location;lat;lon;timestamp;P1;durP1;ratioP1;P2;durP2;ratioP2
13311;SDS011;34033;48.672;9.376;2024-02-16T00:00:12;2.40;;;2.20;;
13311;SDS011;34033;48.672;9.376;2024-02-16T00:02:38;3.77;;;2.30;;
13311;SDS011;34033;48.672;9.376;2024-02-16T00:05:05;2.57;;;2.37;;
13311;SDS011;34033;48.672;9.376;2024-02-16T00:07:32;2.60;;;2.40;;
13311;SDS011;34033;48.672;9.376;2024-02-16T00:09:58;2.63;;;2.40;;
13311;SDS011;34033;48.672;9.376;2024-02-16T00:12:23;2.43;;;2.10;;
13311;SDS011;34033;48.672;9.376;2024-02-16T00:14:49;3.83;;;2.50;;
13311;SDS011;34033;48.672;9.376;2024-02-16T00:17:14;2.97;;;2.40;;
13311;SDS011;34033;48.672;9.376;2024-02-16T00:19:40;3.30;;;2.30;;
13311;SDS011;34033;48.672;9.376;2024-02-16T00:22:05;3.17;;;2.57;;
13311;SDS011;34033;48.672;9.376;2024-02-16T00:24:32;3.00;;;2.30;;
13311;SDS011;34033;48.672;9.376;2024-02-16T00:26:58;5.33;;;2.60;;
13311;SDS011;34033;48.672;9.376;2024-02-16T00:29:24;3.20;;;2.43;;
13311;SDS011;34033;48.672;9.376;2024-02-16T00:31:49;2.33;;;2.10;;
13311;SDS011;34033;48.672;9.376;2024-02-16T00:34:15;3.30;;;2.43;;
13311;SDS011;34033;48.672;9.376;2024-02-16T00:36:40;5.67;;;2.83;;
13311;SDS011;34033;48.672;9.376;2024-02-16T00:39:06;3.33;;;2.27;;
13311;SDS011;34033;48.672;9.376;2024-02-16T00:41:31;3.33;;;2.40;;
13311;SDS011;34033;48.672;9.376;2024-02-16T00:43:56;4.77;;;2.60;;
13311;SDS011;34033;48.672;9.376;2024-02-16T00:46:22;4.53;;;2.40;;
13311;SDS011;34033;48.672;9.376;2024-02-16T00:48:49;4.23;;;2.60;;
13311;SDS011;34033;48.672;9.376;2024-02-16T00:51:15;2.90;;;2.60;;
13311;SDS011;34033;48.672;9.376;2024-02-16T00:53:40;2.73;;;2.50;;
13311;SDS011;34033;48.672;9.376;2024-02-16T00:56:07;6.27;;;2.80;;
13311;SDS011;34033;48.672;9.376;2024-02-16T00:58:33;4.23;;;2.50;;
13311;SDS011;34033;48.672;9.376;2024-02-16T01:00:59;3.30;;;2.67;;
13311;SDS011;34033;48.672;9.376;2024-02-16T01:03:24;3.07;;;2.50;;
13311;SDS011;34033;48.672;9.376;2024-02-16T01:05:51;4.37;;;2.90;;
13311;SDS011;34033;48.672;9.376;2024-02-16T01:08:17;4.90;;;2.70;;
13311;SDS011;34033;48.672;9.376;2024-02-16T01:10:43;2.40;;;2.20;;
13311;SDS011;34033;48.672;9.376;2024-02-16T01:13:08;5.17;;;2.47;;
13311;SDS011;34033;48.672;9.376;2024-02-16T01:15:33;4.97;;;2.83;;
13311;SDS011;34033;48.672;9.376;2024-02-16T01:17:59;4.40;;;2.87;;
13311;SDS011;34033;48.672;9.376;2024-02-16T01:20:25;4.43;;;2.63;;
13311;SDS011;34033;48.672;9.376;2024-02-16T01:22:51;8.13;;;2.70;;
13311;SDS011;34033;48.672;9.376;2024-02-16T01:25:16;2.70;;;2.50;;
13311;SDS011;34033;48.672;9.376;2024-02-16T01:27:41;4.33;;;2.70;;
13311;SDS011;34033;48.672;9.376;2024-02-16T01:30:07;2.30;;;2.10;;
13311;SDS011;34033;48.672;9.376;2024-02-16T01:32:32;2.67;;;2.30;;
13311;SDS011;34033;48.672;9.376;2024-02-16T01:34:59;5.33;;;2.57;;
13311;SDS011;34033;48.672;9.376;2024-02-16T01:37:25;3.90;;;2.33;;
13311;SDS011;34033;48.672;9.376;2024-02-16T01:39:50;3.70;;;2.80;;
13311;SDS011;34033;48.672;9.376;2024-02-16T01:42:15;2.53;;;2.33;;
13311;SDS011;34033;48.672;9.376;2024-02-16T01:44:41;2.30;;;2.10;;
13311;SDS011;34033;48.672;9.376;2024-02-16T01:47:06;5.47;;;2.63;;
13311;SDS011;34033;48.672;9.376;2024-02-16T01:49:31;5.10;;;2.70;;
13311;SDS011;34033;48.672;9.376;2024-02-16T01:51:57;3.00;;;2.50;;
13311;SDS011;34033;48.672;9.376;2024-02-16T01:54:23;2.57;;;2.30;;
13311;SDS011;34033;48.672;9.376;2024-02-16T01:56:49;2.53;;;2.33;;
13311;SDS011;34033;48.672;9.376;2024-02-16T01:59:16;2.93;;;2.57;;
13311;SDS011;34033;48.672;9.376;2024-02-16T02:01:41;2.57;;;2.00;;
13311;SDS011;34033;48.672;9.376;2024-02-16T02:04:07;3.33;;;2.43;;
13311;SDS011;34033;48.672;9.376;2024-02-16T02:06:32;2.70;;;2.30;;
13311;SDS011;34033;48.672;9.376;2024-02-16T02:08:57;3.30;;;2.60;;
13311;SDS011;34033;48.672;9.376;2024-02-16T02:11:23;3.37;;;2.73;;
13311;SDS011;34033;48.672;9.376;2024-02-16T02:13:48;3.43;;;2.30;;
13311;SDS011;34033;48.672;9.376;2024-02-16T02:16:13;2.53;;;2.10;;
13311;SDS011;34033;48.672;9.376;2024-02-16T02:18:40;3.40;;;2.40;;
13311;SDS011;34033;48.672;9.376;2024-02-16T02:21:05;2.53;;;2.20;;
13311;SDS011;34033;48.672;9.376;2024-02-16T02:23:31;3.90;;;2.67;;
13311;SDS011;34033;48.672;9.376;2024-02-16T02:25:56;2.27;;;2.07;;
13311;SDS011;34033;48.672;9.376;2024-02-16T02:28:21;2.90;;;2.60;;
13311;SDS011;34033;48.672;9.376;2024-02-16T02:30:48;3.40;;;2.40;;
13311;SDS011;34033;48.672;9.376;2024-02-16T02:33:14;2.23;;;2.03;;
13311;SDS011;34033;48.672;9.376;2024-02-16T02:35:39;2.97;;;2.10;;
13311;SDS011;34033;48.672;9.376;2024-02-16T02:38:05;2.83;;;2.30;;
13311;SDS011;34033;48.672;9.376;2024-02-16T02:40:30;2.23;;;2.10;;
13311;SDS011;34033;48.672;9.376;2024-02-16T02:42:56;2.33;;;1.90;;
13311;SDS011;34033;48.672;9.376;2024-02-16T02:45:22;2.90;;;2.53;;
13311;SDS011;34033;48.672;9.376;2024-02-16T02:47:48;2.63;;;2.30;;
13311;SDS011;34033;48.672;9.376;2024-02-16T02:50:13;2.37;;;2.17;;
13311;SDS011;34033;48.672;9.376;2024-02-16T02:52:38;2.63;;;2.07;;
13311;SDS011;34033;48.672;9.376;2024-02-16T02:55:04;2.70;;;2.37;;
13311;SDS011;34033;48.672;9.376;2024-02-16T02:57:30;2.50;;;2.30;;
13311;SDS011;34033;48.672;9.376;2024-02-16T03:00:04;3.17;;;2.33;;
13311;SDS011;34033;48.672;9.376;2024-02-16T03:02:32;2.37;;;2.17;;
13311;SDS011;34033;48.672;9.376;2024-02-16T03:04:57;2.70;;;2.50;;
13311;SDS011;34033;48.672;9.376;2024-02-16T03:07:22;3.53;;;2.70;;
13311;SDS011;34033;48.672;9.376;2024-02-16T03:09:48;3.07;;;2.17;;
13311;SDS011;34033;48.672;9.376;2024-02-16T03:12:13;3.07;;;2.60;;
13311;SDS011;34033;48.672;9.376;2024-02-16T03:14:38;2.60;;;2.27;;
13311;SDS011;34033;48.672;9.376;2024-02-16T03:17:10;2.50;;;2.30;;
13311;SDS011;34033;48.672;9.376;2024-02-16T03:19:35;4.10;;;2.50;;
13311;SDS011;34033;48.672;9.376;2024-02-16T03:22:01;3.20;;;2.63;;
13311;SDS011;34033;48.672;9.376;2024-02-16T03:24:26;3.70;;;2.47;;
13311;SDS011;34033;48.672;9.376;2024-02-16T03:26:51;2.43;;;2.23;;
13311;SDS011;34033;48.672;9.376;2024-02-16T03:29:17;3.30;;;2.33;;
13311;SDS011;34033;48.672;9.376;2024-02-16T03:31:42;3.37;;;2.67;;
13311;SDS011;34033;48.672;9.376;2024-02-16T03:34:08;3.07;;;2.50;;
13311;SDS011;34033;48.672;9.376;2024-02-16T03:36:33;2.13;;;2.03;;
13311;SDS011;34033;48.672;9.376;2024-02-16T03:38:59;2.40;;;2.20;;
13311;SDS011;34033;48.672;9.376;2024-02-16T03:41:24;2.33;;;2.10;;
13311;SDS011;34033;48.672;9.376;2024-02-16T03:43:50;8.83;;;2.80;;
13311;SDS011;34033;48.672;9.376;2024-02-16T03:46:16;3.20;;;2.60;;
13311;SDS011;34033;48.672;9.376;2024-02-16T03:48:41;2.63;;;2.30;;
13311;SDS011;34033;48.672;9.376;2024-02-16T03:51:07;2.80;;;2.33;;
13311;SDS011;34033;48.672;9.376;2024-02-16T03:53:32;2.40;;;2.20;;
13311;SDS011;34033;48.672;9.376;2024-02-16T03:55:59;3.00;;;2.20;;
13311;SDS011;34033;48.672;9.376;2024-02-16T03:58:24;3.53;;;2.30;;
13311;SDS011;34033;48.672;9.376;2024-02-16T04:00:50;2.60;;;2.07;;
13311;SDS011;34033;48.672;9.376;2024-02-16T04:03:15;2.87;;;2.43;;
13311;SDS011;34033;48.672;9.376;2024-02-16T04:05:41;2.60;;;2.33;;
13311;SDS011;34033;48.672;9.376;2024-02-16T04:08:07;2.03;;;1.90;;
13311;SDS011;34033;48.672;9.376;2024-02-16T04:10:33;2.43;;;1.97;;
13311;SDS011;34033;48.672;9.376;2024-02-16T04:12:59;2.80;;;2.10;;
13311;SDS011;34033;48.672;9.376;2024-02-16T04:15:24;2.33;;;2.13;;
13311;SDS011;34033;48.672;9.376;2024-02-16T04:17:50;1.93;;;1.80;;
13311;SDS011;34033;48.672;9.376;2024-02-16T04:20:15;2.00;;;1.80;;
13311;SDS011;34033;48.672;9.376;2024-02-16T04:22:41;1.80;;;1.70;;
13311;SDS011;34033;48.672;9.376;2024-02-16T04:25:06;2.10;;;1.90;;
13311;SDS011;34033;48.672;9.376;2024-02-16T04:27:33;2.77;;;2.20;;
13311;SDS011;34033;48.672;9.376;2024-02-16T04:29:59;5.87;;;1.97;;
13311;SDS011;34033;48.672;9.376;2024-02-16T04:32:25;2.27;;;2.10;;
13311;SDS011;34033;48.672;9.376;2024-02-16T04:34:51;3.80;;;2.17;;
13311;SDS011;34033;48.672;9.376;2024-02-16T04:37:21;1.90;;;1.67;;
13311;SDS011;34033;48.672;9.376;2024-02-16T04:39:46;3.20;;;2.30;;
13311;SDS011;34033;48.672;9.376;2024-02-16T04:42:12;3.43;;;2.27;;
13311;SDS011;34033;48.672;9.376;2024-02-16T04:44:37;8.67;;;2.07;;
13311;SDS011;34033;48.672;9.376;2024-02-16T04:47:04;2.40;;;2.20;;
13311;SDS011;34033;48.672;9.376;2024-02-16T04:49:29;4.90;;;1.87;;
13311;SDS011;34033;48.672;9.376;2024-02-16T04:51:55;3.03;;;1.90;;
13311;SDS011;34033;48.672;9.376;2024-02-16T04:54:20;2.73;;;2.00;;
13311;SDS011;34033;48.672;9.376;2024-02-16T04:56:45;2.37;;;1.93;;
13311;SDS011;34033;48.672;9.376;2024-02-16T04:59:11;2.93;;;1.97;;
13311;SDS011;34033;48.672;9.376;2024-02-16T05:01:36;4.40;;;1.90;;
13311;SDS011;34033;48.672;9.376;2024-02-16T05:04:01;1.73;;;1.63;;
13311;SDS011;34033;48.672;9.376;2024-02-16T05:06:27;2.03;;;1.87;;
13311;SDS011;34033;48.672;9.376;2024-02-16T05:08:52;2.43;;;2.23;;
13311;SDS011;34033;48.672;9.376;2024-02-16T05:11:18;2.90;;;2.17;;
13311;SDS011;34033;48.672;9.376;2024-02-16T05:13:44;2.50;;;2.30;;
13311;SDS011;34033;48.672;9.376;2024-02-16T05:16:10;2.47;;;2.27;;
13311;SDS011;34033;48.672;9.376;2024-02-16T05:18:36;2.27;;;1.90;;
13311;SDS011;34033;48.672;9.376;2024-02-16T05:21:02;3.33;;;2.40;;
13311;SDS011;34033;48.672;9.376;2024-02-16T05:23:27;4.23;;;2.40;;
13311;SDS011;34033;48.672;9.376;2024-02-16T05:25:53;8.53;;;3.00;;
13311;SDS011;34033;48.672;9.376;2024-02-16T05:28:19;4.27;;;3.17;;
13311;SDS011;34033;48.672;9.376;2024-02-16T05:30:44;2.87;;;2.60;;
13311;SDS011;34033;48.672;9.376;2024-02-16T05:33:10;4.30;;;2.70;;
13311;SDS011;34033;48.672;9.376;2024-02-16T05:35:35;4.30;;;2.77;;
13311;SDS011;34033;48.672;9.376;2024-02-16T05:38:04;3.50;;;3.03;;
13311;SDS011;34033;48.672;9.376;2024-02-16T05:40:35;2.57;;;2.30;;
13311;SDS011;34033;48.672;9.376;2024-02-16T05:43:18;2.70;;;2.40;;
13311;SDS011;34033;48.672;9.376;2024-02-16T05:45:44;2.50;;;2.13;;
13311;SDS011;34033;48.672;9.376;2024-02-16T05:48:09;3.10;;;2.10;;
13311;SDS011;34033;48.672;9.376;2024-02-16T05:50:35;3.23;;;2.37;;
13311;SDS011;34033;48.672;9.376;2024-02-16T05:53:00;3.63;;;1.80;;
13311;SDS011;34033;48.672;9.376;2024-02-16T05:55:26;3.27;;;2.13;;
13311;SDS011;34033;48.672;9.376;2024-02-16T05:57:51;2.93;;;2.13;;
13311;SDS011;34033;48.672;9.376;2024-02-16T06:00:16;1.80;;;1.70;;
13311;SDS011;34033;48.672;9.376;2024-02-16T06:02:46;3.50;;;2.10;;
13311;SDS011;34033;48.672;9.376;2024-02-16T06:05:11;2.90;;;2.37;;
13311;SDS011;34033;48.672;9.376;2024-02-16T06:07:37;3.97;;;2.30;;
13311;SDS011;34033;48.672;9.376;2024-02-16T06:10:05;2.47;;;2.10;;
13311;SDS011;34033;48.672;9.376;2024-02-16T06:12:38;2.10;;;1.93;;
13311;SDS011;34033;48.672;9.376;2024-02-16T06:15:04;3.70;;;1.87;;
13311;SDS011;34033;48.672;9.376;2024-02-16T06:17:30;3.20;;;2.30;;
13311;SDS011;34033;48.672;9.376;2024-02-16T06:19:55;2.40;;;2.17;;
13311;SDS011;34033;48.672;9.376;2024-02-16T06:22:21;5.27;;;2.20;;
13311;SDS011;34033;48.672;9.376;2024-02-16T06:24:46;2.33;;;2.00;;
13311;SDS011;34033;48.672;9.376;2024-02-16T06:27:11;3.73;;;2.00;;
13311;SDS011;34033;48.672;9.376;2024-02-16T06:29:37;2.60;;;1.70;;
13311;SDS011;34033;48.672;9.376;2024-02-16T06:32:02;2.73;;;2.43;;
13311;SDS011;34033;48.672;9.376;2024-02-16T06:34:28;3.33;;;2.47;;
13311;SDS011;34033;48.672;9.376;2024-02-16T06:36:53;4.23;;;3.07;;
13311;SDS011;34033;48.672;9.376;2024-02-16T06:39:18;3.93;;;3.10;;
13311;SDS011;34033;48.672;9.376;2024-02-16T06:41:45;3.30;;;3.00;;
13311;SDS011;34033;48.672;9.376;2024-02-16T06:44:14;4.57;;;3.10;;
13311;SDS011;34033;48.672;9.376;2024-02-16T06:46:41;4.00;;;3.33;;
13311;SDS011;34033;48.672;9.376;2024-02-16T06:49:06;6.30;;;4.07;;
13311;SDS011;34033;48.672;9.376;2024-02-16T06:51:32;8.37;;;5.07;;
13311;SDS011;34033;48.672;9.376;2024-02-16T06:53:57;7.43;;;4.53;;
13311;SDS011;34033;48.672;9.376;2024-02-16T06:56:23;5.03;;;3.27;;
13311;SDS011;34033;48.672;9.376;2024-02-16T06:58:49;5.30;;;2.83;;
13311;SDS011;34033;48.672;9.376;2024-02-16T07:01:15;4.53;;;2.97;;
13311;SDS011;34033;48.672;9.376;2024-02-16T07:03:41;3.00;;;2.70;;
13311;SDS011;34033;48.672;9.376;2024-02-16T07:06:07;3.23;;;2.53;;
13311;SDS011;34033;48.672;9.376;2024-02-16T07:08:37;2.93;;;2.57;;
13311;SDS011;34033;48.672;9.376;2024-02-16T07:11:04;2.93;;;2.40;;
13311;SDS011;34033;48.672;9.376;2024-02-16T07:13:30;3.13;;;2.07;;
13311;SDS011;34033;48.672;9.376;2024-02-16T07:15:56;2.80;;;2.50;;
13311;SDS011;34033;48.672;9.376;2024-02-16T07:18:22;2.53;;;2.20;;
13311;SDS011;34033;48.672;9.376;2024-02-16T07:20:47;3.00;;;2.17;;
13311;SDS011;34033;48.672;9.376;2024-02-16T07:23:13;4.13;;;2.47;;
13311;SDS011;34033;48.672;9.376;2024-02-16T07:25:40;4.40;;;2.20;;
13311;SDS011;34033;48.672;9.376;2024-02-16T07:28:06;2.67;;;2.30;;
13311;SDS011;34033;48.672;9.376;2024-02-16T07:30:31;2.90;;;2.60;;
13311;SDS011;34033;48.672;9.376;2024-02-16T07:32:57;4.60;;;2.67;;
13311;SDS011;34033;48.672;9.376;2024-02-16T07:35:23;3.50;;;2.53;;
13311;SDS011;34033;48.672;9.376;2024-02-16T07:37:49;2.60;;;2.30;;
13311;SDS011;34033;48.672;9.376;2024-02-16T07:40:18;3.93;;;2.57;;
13311;SDS011;34033;48.672;9.376;2024-02-16T07:42:44;4.70;;;2.77;;
13311;SDS011;34033;48.672;9.376;2024-02-16T07:45:10;2.77;;;2.50;;
13311;SDS011;34033;48.672;9.376;2024-02-16T07:47:37;3.03;;;2.50;;
13311;SDS011;34033;48.672;9.376;2024-02-16T07:50:03;2.73;;;2.07;;
13311;SDS011;34033;48.672;9.376;2024-02-16T07:52:28;2.60;;;2.37;;
13311;SDS011;34033;48.672;9.376;2024-02-16T07:54:54;2.67;;;2.47;;
13311;SDS011;34033;48.672;9.376;2024-02-16T07:57:19;2.63;;;2.40;;
13311;SDS011;34033;48.672;9.376;2024-02-16T07:59:45;2.83;;;2.57;;
13311;SDS011;34033;48.672;9.376;2024-02-16T08:02:10;2.20;;;2.00;;
13311;SDS011;34033;48.672;9.376;2024-02-16T08:04:40;2.60;;;2.40;;
13311;SDS011;34033;48.672;9.376;2024-02-16T08:07:06;2.77;;;2.07;;
13311;SDS011;34033;48.672;9.376;2024-02-16T08:09:31;3.93;;;2.47;;
13311;SDS011;34033;48.672;9.376;2024-02-16T08:11:57;2.63;;;2.30;;
13311;SDS011;34033;48.672;9.376;2024-02-16T08:14:22;2.47;;;1.73;;
13311;SDS011;34033;48.672;9.376;2024-02-16T08:16:47;2.03;;;1.87;;
13311;SDS011;34033;48.672;9.376;2024-02-16T08:19:13;2.87;;;2.30;;
13311;SDS011;34033;48.672;9.376;2024-02-16T08:21:39;2.00;;;1.83;;
13311;SDS011;34033;48.672;9.376;2024-02-16T08:24:04;2.20;;;2.00;;
13311;SDS011;34033;48.672;9.376;2024-02-16T08:26:30;2.40;;;2.17;;
13311;SDS011;34033;48.672;9.376;2024-02-16T08:28:56;2.43;;;2.13;;
13311;SDS011;34033;48.672;9.376;2024-02-16T08:31:21;4.20;;;1.90;;
13311;SDS011;34033;48.672;9.376;2024-02-16T08:33:47;2.00;;;1.87;;
13311;SDS011;34033;48.672;9.376;2024-02-16T08:36:12;1.97;;;1.83;;
13311;SDS011;34033;48.672;9.376;2024-02-16T08:38:39;2.07;;;1.90;;
13311;SDS011;34033;48.672;9.376;2024-02-16T08:41:04;2.27;;;1.87;;
13311;SDS011;34033;48.672;9.376;2024-02-16T08:43:29;3.63;;;2.93;;
13311;SDS011;34033;48.672;9.376;2024-02-16T08:45:55;5.17;;;2.67;;
13311;SDS011;34033;48.672;9.376;2024-02-16T08:48:21;4.63;;;3.13;;
13311;SDS011;34033;48.672;9.376;2024-02-16T08:50:47;2.53;;;2.20;;
13311;SDS011;34033;48.672;9.376;2024-02-16T08:53:13;2.83;;;2.20;;
13311;SDS011;34033;48.672;9.376;2024-02-16T08:55:39;2.37;;;2.17;;
13311;SDS011;34033;48.672;9.376;2024-02-16T08:58:07;5.30;;;2.63;;
13311;SDS011;34033;48.672;9.376;2024-02-16T09:00:33;3.90;;;2.30;;
13311;SDS011;34033;48.672;9.376;2024-02-16T09:02:59;2.20;;;2.00;;
13311;SDS011;34033;48.672;9.376;2024-02-16T09:05:27;2.73;;;2.40;;
13311;SDS011;34033;48.672;9.376;2024-02-16T09:07:52;3.43;;;2.23;;
13311;SDS011;34033;48.672;9.376;2024-02-16T09:10:18;2.27;;;2.07;;
13311;SDS011;34033;48.672;9.376;2024-02-16T09:12:43;2.30;;;2.10;;
13311;SDS011;34033;48.672;9.376;2024-02-16T09:15:08;2.00;;;1.90;;
13311;SDS011;34033;48.672;9.376;2024-02-16T09:17:34;2.37;;;2.03;;
13311;SDS011;34033;48.672;9.376;2024-02-16T09:19:59;2.13;;;1.90;;
13311;SDS011;34033;48.672;9.376;2024-02-16T09:22:25;2.17;;;1.97;;
13311;SDS011;34033;48.672;9.376;2024-02-16T09:24:50;1.83;;;1.73;;
13311;SDS011;34033;48.672;9.376;2024-02-16T09:27:15;1.70;;;1.60;;
13311;SDS011;34033;48.672;9.376;2024-02-16T09:29:41;1.90;;;1.80;;
13311;SDS011;34033;48.672;9.376;2024-02-16T09:32:06;1.80;;;1.70;;
13311;SDS011;34033;48.672;9.376;2024-02-16T09:34:32;1.90;;;1.70;;
13311;SDS011;34033;48.672;9.376;2024-02-16T09:36:57;2.20;;;1.90;;
13311;SDS011;34033;48.672;9.376;2024-02-16T09:39:22;2.07;;;1.97;;
13311;SDS011;34033;48.672;9.376;2024-02-16T09:41:50;4.97;;;2.00;;
13311;SDS011;34033;48.672;9.376;2024-02-16T09:44:17;2.53;;;2.10;;
13311;SDS011;34033;48.672;9.376;2024-02-16T09:46:44;2.20;;;2.00;;
13311;SDS011;34033;48.672;9.376;2024-02-16T09:49:10;2.83;;;2.00;;
13311;SDS011;34033;48.672;9.376;2024-02-16T09:51:36;2.43;;;2.23;;
13311;SDS011;34033;48.672;9.376;2024-02-16T09:54:02;1.90;;;1.80;;
13311;SDS011;34033;48.672;9.376;2024-02-16T09:56:28;2.27;;;2.00;;
13311;SDS011;34033;48.672;9.376;2024-02-16T09:58:53;4.60;;;2.00;;
13311;SDS011;34033;48.672;9.376;2024-02-16T10:01:22;1.70;;;1.60;;
13311;SDS011;34033;48.672;9.376;2024-02-16T10:03:48;3.17;;;1.90;;
13311;SDS011;34033;48.672;9.376;2024-02-16T10:06:14;2.20;;;1.80;;
13311;SDS011;34033;48.672;9.376;2024-02-16T10:08:50;1.90;;;1.77;;
13311;SDS011;34033;48.672;9.376;2024-02-16T10:11:17;2.23;;;1.93;;
13311;SDS011;34033;48.672;9.376;2024-02-16T10:14:03;4.20;;;1.80;;
13311;SDS011;34033;48.672;9.376;2024-02-16T10:16:29;2.13;;;1.93;;
13311;SDS011;34033;48.672;9.376;2024-02-16T10:18:56;1.90;;;1.73;;
13311;SDS011;34033;48.672;9.376;2024-02-16T10:21:29;1.73;;;1.63;;
13311;SDS011;34033;48.672;9.376;2024-02-16T10:24:01;4.30;;;1.83;;
13311;SDS011;34033;48.672;9.376;2024-02-16T10:26:30;1.70;;;1.60;;
13311;SDS011;34033;48.672;9.376;2024-02-16T10:28:56;6.03;;;1.87;;
13311;SDS011;34033;48.672;9.376;2024-02-16T10:31:26;1.83;;;1.73;;
13311;SDS011;34033;48.672;9.376;2024-02-16T10:36:25;1.30;;;1.20;;
13311;SDS011;34033;48.672;9.376;2024-02-16T10:38:54;3.10;;;1.30;;
13311;SDS011;34033;48.672;9.376;2024-02-16T10:41:22;1.00;;;1.00;;
13311;SDS011;34033;48.672;9.376;2024-02-16T10:43:52;1.33;;;1.23;;
13311;SDS011;34033;48.672;9.376;2024-02-16T10:46:18;1.20;;;1.10;;
13311;SDS011;34033;48.672;9.376;2024-02-16T10:48:45;1.37;;;1.23;;
13311;SDS011;34033;48.672;9.376;2024-02-16T10:51:10;1.23;;;1.13;;
13311;SDS011;34033;48.672;9.376;2024-02-16T10:53:38;1.27;;;1.17;;
13311;SDS011;34033;48.672;9.376;2024-02-16T10:56:06;1.20;;;1.10;;
13311;SDS011;34033;48.672;9.376;2024-02-16T10:58:32;1.03;;;1.03;;
13311;SDS011;34033;48.672;9.376;2024-02-16T11:01:07;1.37;;;1.10;;
13311;SDS011;34033;48.672;9.376;2024-02-16T11:03:33;4.33;;;1.30;;
13311;SDS011;34033;48.672;9.376;2024-02-16T11:05:58;1.40;;;1.30;;
13311;SDS011;34033;48.672;9.376;2024-02-16T11:08:24;1.53;;;1.10;;
13311;SDS011;34033;48.672;9.376;2024-02-16T11:11:00;1.60;;;1.03;;
13311;SDS011;34033;48.672;9.376;2024-02-16T11:13:26;0.90;;;0.90;;
13311;SDS011;34033;48.672;9.376;2024-02-16T11:15:57;2.47;;;1.47;;
13311;SDS011;34033;48.672;9.376;2024-02-16T11:18:24;1.23;;;1.13;;
13311;SDS011;34033;48.672;9.376;2024-02-16T11:20:50;1.10;;;1.10;;
13311;SDS011;34033;48.672;9.376;2024-02-16T11:23:15;1.20;;;1.10;;
13311;SDS011;34033;48.672;9.376;2024-02-16T11:25:49;1.20;;;1.10;;
13311;SDS011;34033;48.672;9.376;2024-02-16T11:28:16;1.40;;;1.13;;
13311;SDS011;34033;48.672;9.376;2024-02-16T11:30:42;1.63;;;1.00;;
13311;SDS011;34033;48.672;9.376;2024-02-16T11:33:11;0.90;;;0.90;;
13311;SDS011;34033;48.672;9.376;2024-02-16T11:35:36;1.00;;;1.00;;
13311;SDS011;34033;48.672;9.376;2024-02-16T11:38:01;1.60;;;0.80;;
13311;SDS011;34033;48.672;9.376;2024-02-16T11:40:27;2.00;;;1.07;;
13311;SDS011;34033;48.672;9.376;2024-02-16T11:42:59;1.23;;;1.23;;
13311;SDS011;34033;48.672;9.376;2024-02-16T11:45:25;1.10;;;1.00;;
13311;SDS011;34033;48.672;9.376;2024-02-16T11:47:51;0.80;;;0.80;;
13311;SDS011;34033;48.672;9.376;2024-02-16T11:50:17;1.07;;;1.07;;
13311;SDS011;34033;48.672;9.376;2024-02-16T11:52:43;1.40;;;0.83;;
13311;SDS011;34033;48.672;9.376;2024-02-16T11:55:09;1.00;;;1.00;;
13311;SDS011;34033;48.672;9.376;2024-02-16T11:57:35;1.33;;;1.23;;
13311;SDS011;34033;48.672;9.376;2024-02-16T12:00:03;1.10;;;1.00;;
13311;SDS011;34033;48.672;9.376;2024-02-16T12:02:33;1.87;;;1.00;;
13311;SDS011;34033;48.672;9.376;2024-02-16T12:05:00;1.13;;;0.90;;
13311;SDS011;34033;48.672;9.376;2024-02-16T12:07:25;0.80;;;0.80;;
13311;SDS011;34033;48.672;9.376;2024-02-16T12:09:57;0.83;;;0.83;;
13311;SDS011;34033;48.672;9.376;2024-02-16T12:12:24;0.90;;;0.70;;
13311;SDS011;34033;48.672;9.376;2024-02-16T12:14:50;0.93;;;0.80;;
13311;SDS011;34033;48.672;9.376;2024-02-16T12:17:15;0.77;;;0.77;;
13311;SDS011;34033;48.672;9.376;2024-02-16T12:19:47;0.90;;;0.90;;
13311;SDS011;34033;48.672;9.376;2024-02-16T12:22:19;1.30;;;1.00;;
13311;SDS011;34033;48.672;9.376;2024-02-16T12:24:46;0.97;;;0.97;;
13311;SDS011;34033;48.672;9.376;2024-02-16T12:27:12;1.67;;;0.97;;
13311;SDS011;34033;48.672;9.376;2024-02-16T12:29:40;0.90;;;0.90;;
13311;SDS011;34033;48.672;9.376;2024-02-16T12:32:06;0.70;;;0.70;;
13311;SDS011;34033;48.672;9.376;2024-02-16T12:34:34;0.70;;;0.70;;
13311;SDS011;34033;48.672;9.376;2024-02-16T12:37:00;0.80;;;0.80;;
13311;SDS011;34033;48.672;9.376;2024-02-16T12:39:25;0.60;;;0.60;;
13311;SDS011;34033;48.672;9.376;2024-02-16T12:41:50;0.93;;;0.93;;
13311;SDS011;34033;48.672;9.376;2024-02-16T12:44:16;2.63;;;0.80;;
13311;SDS011;34033;48.672;9.376;2024-02-16T12:46:42;0.90;;;0.90;;
13311;SDS011;34033;48.672;9.376;2024-02-16T12:49:08;0.80;;;0.80;;
13311;SDS011;34033;48.672;9.376;2024-02-16T12:51:33;5.97;;;0.70;;
13311;SDS011;34033;48.672;9.376;2024-02-16T12:53:59;0.80;;;0.80;;
13311;SDS011;34033;48.672;9.376;2024-02-16T12:56:28;0.67;;;0.67;;
13311;SDS011;34033;48.672;9.376;2024-02-16T12:58:54;1.53;;;0.80;;
13311;SDS011;34033;48.672;9.376;2024-02-16T13:01:20;0.90;;;0.90;;
13311;SDS011;34033;48.672;9.376;2024-02-16T13:03:45;1.30;;;1.20;;
13311;SDS011;34033;48.672;9.376;2024-02-16T13:06:12;0.90;;;0.90;;
13311;SDS011;34033;48.672;9.376;2024-02-16T13:08:38;1.20;;;1.10;;
13311;SDS011;34033;48.672;9.376;2024-02-16T13:11:03;1.20;;;1.10;;
13311;SDS011;34033;48.672;9.376;2024-02-16T13:13:29;1.33;;;1.23;;
13311;SDS011;34033;48.672;9.376;2024-02-16T13:15:54;1.40;;;1.20;;
13311;SDS011;34033;48.672;9.376;2024-02-16T13:18:21;1.23;;;1.13;;
13311;SDS011;34033;48.672;9.376;2024-02-16T13:20:47;1.10;;;1.00;;
13311;SDS011;34033;48.672;9.376;2024-02-16T13:23:12;0.97;;;0.97;;
13311;SDS011;34033;48.672;9.376;2024-02-16T13:25:38;1.00;;;1.00;;
13311;SDS011;34033;48.672;9.376;2024-02-16T13:28:03;1.20;;;1.10;;
13311;SDS011;34033;48.672;9.376;2024-02-16T13:30:29;1.10;;;1.03;;
13311;SDS011;34033;48.672;9.376;2024-02-16T13:32:54;1.00;;;1.00;;
13311;SDS011;34033;48.672;9.376;2024-02-16T13:35:20;1.00;;;1.00;;
13311;SDS011;34033;48.672;9.376;2024-02-16T13:37:45;1.00;;;0.90;;
13311;SDS011;34033;48.672;9.376;2024-02-16T13:40:11;1.00;;;1.00;;
13311;SDS011;34033;48.672;9.376;2024-02-16T13:42:40;1.57;;;1.10;;
13311;SDS011;34033;48.672;9.376;2024-02-16T13:45:07;1.90;;;1.37;;
13311;SDS011;34033;48.672;9.376;2024-02-16T13:47:33;2.13;;;1.53;;
13311;SDS011;34033;48.672;9.376;2024-02-16T13:49:59;1.92;;;1.67;;
13311;SDS011;34033;48.672;9.376;2024-02-16T13:52:25;1.10;;;1.10;;
13311;SDS011;34033;48.672;9.376;2024-02-16T13:54:50;1.07;;;1.03;;
13311;SDS011;34033;48.672;9.376;2024-02-16T13:57:16;1.57;;;1.30;;
13311;SDS011;34033;48.672;9.376;2024-02-16T13:59:42;1.60;;;1.43;;
13311;SDS011;34033;48.672;9.376;2024-02-16T14:02:08;1.87;;;1.23;;
13311;SDS011;34033;48.672;9.376;2024-02-16T14:04:33;1.00;;;0.87;;
13311;SDS011;34033;48.672;9.376;2024-02-16T14:06:59;1.30;;;1.20;;
13311;SDS011;34033;48.672;9.376;2024-02-16T14:09:25;1.77;;;1.17;;
13311;SDS011;34033;48.672;9.376;2024-02-16T14:11:51;1.10;;;1.03;;
13311;SDS011;34033;48.672;9.376;2024-02-16T14:14:18;1.33;;;1.10;;
13311;SDS011;34033;48.672;9.376;2024-02-16T14:16:44;1.30;;;1.20;;
13311;SDS011;34033;48.672;9.376;2024-02-16T14:19:09;1.40;;;1.30;;
13311;SDS011;34033;48.672;9.376;2024-02-16T14:21:35;1.20;;;1.10;;
13311;SDS011;34033;48.672;9.376;2024-02-16T14:24:00;1.87;;;1.13;;
13311;SDS011;34033;48.672;9.376;2024-02-16T14:26:25;1.30;;;1.17;;
13311;SDS011;34033;48.672;9.376;2024-02-16T14:28:51;3.40;;;1.40;;
13311;SDS011;34033;48.672;9.376;2024-02-16T14:31:16;1.40;;;1.30;;
13311;SDS011;34033;48.672;9.376;2024-02-16T14:33:45;1.27;;;1.10;;
13311;SDS011;34033;48.672;9.376;2024-02-16T14:36:11;3.20;;;1.40;;
13311;SDS011;34033;48.672;9.376;2024-02-16T14:38:37;0.97;;;0.97;;
13311;SDS011;34033;48.672;9.376;2024-02-16T14:41:03;1.30;;;1.00;;
13311;SDS011;34033;48.672;9.376;2024-02-16T14:43:34;3.03;;;1.07;;